Time;durP1;ratioP1;P1;durP2;ratioP2;P2;SDS_P1;SDS_P2;PMS_P1;PMS_P2;Temp;Humidity;BMP_temperature;BMP_pressure;BME280_temperature;BME280_humidity;BME280_pressure;Samples;Min_cycle;Max_cycle;Signal;HPM_P1;HPM_P2
2021/08/01 00:00:11;;;;;;;16.42;7.18;;;;;;;24.27;51.44;94744.63;5079297;22;20523;-80
2021/08/01 00:02:36;;;;;;;19.42;7.13;;;;;;;24.25;51.97;94746.81;5074803;28;20070;-80
2021/08/01 00:05:02;;;;;;;13.93;7.18;;;;;;;24.25;51.68;94746.81;5075785;28;20017;-80
2021/08/01 00:07:27;;;;;;;14.50;5.40;;;;;;;24.22;47.83;94744.78;5075797;28;20036;-80
2021/08/01 00:09:59;;;;;;;17.15;8.80;;;;;;;24.23;50.52;94749.78;5075433;28;20025;-79
2021/08/01 00:12:26;;;;;;;15.32;6.40;;;;;;;24.15;49.62;94747.16;5071651;28;20028;-80
2021/08/01 00:14:51;;;;;;;18.08;6.85;;;;;;;24.11;49.70;94744.38;5089719;22;20121;-79
2021/08/01 00:17:16;;;;;;;18.17;7.50;;;;;;;24.09;50.58;94737.81;5074465;28;20055;-79
2021/08/01 00:19:42;;;;;;;19.58;8.07;;;;;;;24.03;51.58;94739.84;5075071;28;20033;-79
2021/08/01 00:22:07;;;;;;;17.90;6.85;;;;;;;24.01;51.49;94749.25;5074237;28;20044;-80
2021/08/01 00:24:33;;;;;;;16.77;5.07;;;;;;;23.95;48.77;94760.06;5056099;28;20127;-79
2021/08/01 00:26:58;;;;;;;9.50;5.43;;;;;;;23.86;50.08;94755.84;5039716;28;20035;-80
2021/08/01 00:29:24;;;;;;;11.23;6.07;;;;;;;23.75;50.95;94759.94;5021713;28;20098;-80
2021/08/01 00:31:49;;;;;;;19.90;6.55;;;;;;;23.62;52.43;94751.84;5073670;28;20182;-80
2021/08/01 00:34:21;;;;;;;14.25;7.05;;;;;;;23.55;53.28;94742.75;5074831;28;20059;-79
2021/08/01 00:36:46;;;;;;;13.27;8.00;;;;;;;23.51;54.46;94752.47;5074721;28;20466;-80
2021/08/01 00:39:21;;;;;;;21.65;9.57;;;;;;;23.27;56.79;94767.00;5074729;28;20033;-80
2021/08/01 00:41:46;;;;;;;19.98;10.93;;;;;;;22.92;58.51;94765.41;5073806;28;20032;-79
2021/08/01 00:44:14;;;;;;;21.33;10.40;;;;;;;23.00;58.73;94762.78;5072747;28;20439;-80
2021/08/01 00:46:40;;;;;;;20.77;10.55;;;;;;;22.92;59.17;94762.75;5074386;28;20032;-79
2021/08/01 00:49:05;;;;;;;21.92;10.55;;;;;;;22.88;59.87;94761.81;5074298;28;20044;-79
2021/08/01 00:51:31;;;;;;;17.35;10.88;;;;;;;22.98;59.78;94772.13;5074064;28;20024;-79
2021/08/01 00:53:57;;;;;;;21.77;11.45;;;;;;;22.94;60.16;94763.22;5039438;28;20089;-79
2021/08/01 00:56:23;;;;;;;19.95;12.00;;;;;;;22.67;61.38;94780.94;5073707;28;20035;-79
2021/08/01 00:58:48;;;;;;;21.83;12.10;;;;;;;22.63;61.25;94779.22;5074113;28;20426;-79
2021/08/01 01:01:15;;;;;;;27.67;12.65;;;;;;;22.66;61.53;94773.28;5074679;28;20534;-80
2021/08/01 01:03:50;;;;;;;24.00;12.00;;;;;;;22.66;61.75;94770.66;5055886;28;20028;-80
2021/08/01 01:06:23;;;;;;;24.83;11.90;;;;;;;22.65;61.57;94777.81;5073243;28;20483;-79
2021/08/01 01:09:00;;;;;;;30.33;12.40;;;;;;;22.44;62.72;94780.22;5055943;28;20054;-79
2021/08/01 01:11:28;;;;;;;28.05;12.32;;;;;;;22.38;62.59;94780.69;5074137;28;20037;-80
2021/08/01 01:13:54;;;;;;;20.38;12.75;;;;;;;22.31;62.79;94778.50;5044944;28;20040;-79
2021/08/01 01:16:19;;;;;;;21.35;12.25;;;;;;;22.29;62.65;94775.38;5045597;28;20066;-79
2021/08/01 01:18:49;;;;;;;25.88;11.18;;;;;;;22.37;61.24;94776.47;5082150;28;20028;-78
2021/08/01 01:21:30;;;;;;;28.33;12.05;;;;;;;22.36;61.16;94778.34;5061270;28;20028;-78
2021/08/01 01:24:06;;;;;;;26.52;11.13;;;;;;;22.42;60.95;94777.09;5082976;28;20036;-79
2021/08/01 01:26:36;;;;;;;29.05;11.40;;;;;;;22.45;61.04;94773.88;5058131;28;20528;-79
2021/08/01 01:29:20;;;;;;;19.77;12.40;;;;;;;22.45;61.03;94778.34;5078299;28;20446;-79
2021/08/01 01:31:45;;;;;;;21.60;11.05;;;;;;;22.48;60.95;94783.06;5058395;28;20092;-80
2021/08/01 01:34:30;;;;;;;23.85;12.10;;;;;;;22.49;61.31;94787.28;5078406;28;20550;-80
2021/08/01 01:36:55;;;;;;;24.23;11.52;;;;;;;22.47;61.27;94784.16;5078390;28;20541;-80
2021/08/01 01:39:21;;;;;;;20.25;11.63;;;;;;;22.50;61.45;94788.84;5060101;28;20032;-80
2021/08/01 01:41:50;;;;;;;27.45;12.45;;;;;;;22.53;61.41;94784.78;5060181;28;20032;-80
2021/08/01 01:44:15;;;;;;;23.75;12.35;;;;;;;22.40;61.93;94783.81;5043404;28;20028;-80
2021/08/01 01:46:40;;;;;;;31.48;12.02;;;;;;;22.35;62.24;94778.66;5043377;28;20054;-80
2021/08/01 01:49:07;;;;;;;22.83;12.85;;;;;;;22.34;62.45;94785.03;5042620;28;20063;-80
2021/08/01 01:51:32;;;;;;;29.80;13.13;;;;;;;22.32;62.39;94789.88;5043099;28;20037;-79
2021/08/01 01:53:58;;;;;;;23.35;12.93;;;;;;;22.26;62.68;94788.44;5078018;28;20430;-79
2021/08/01 01:56:28;;;;;;;32.72;13.95;;;;;;;22.26;62.89;94801.66;5042914;28;20035;-80
2021/08/01 01:58:54;;;;;;;25.48;12.65;;;;;;;22.33;62.21;94792.22;5059772;28;20040;-80
2021/08/01 02:01:19;;;;;;;24.20;12.85;;;;;;;22.37;61.75;94797.66;5076593;28;20433;-80
2021/08/01 02:03:45;;;;;;;28.23;12.07;;;;;;;22.43;61.85;94791.13;5058433;28;20029;-80
2021/08/01 02:06:13;;;;;;;24.35;12.50;;;;;;;22.45;62.09;94788.97;5077662;28;20040;-80
2021/08/01 02:08:57;;;;;;;30.48;12.65;;;;;;;22.41;61.56;94794.09;5077098;28;20025;-80
2021/08/01 02:11:24;;;;;;;29.98;12.38;;;;;;;22.41;61.97;94788.03;5077618;28;20052;-80
2021/08/01 02:13:58;;;;;;;23.42;12.52;;;;;;;22.47;61.71;94792.13;5042232;28;20039;-80
2021/08/01 02:16:27;;;;;;;28.30;12.48;;;;;;;22.46;61.57;94785.25;5059376;28;20025;-80
2021/08/01 02:18:54;;;;;;;31.00;13.93;;;;;;;22.31;61.89;94788.31;5042760;28;20040;-80
2021/08/01 02:21:20;;;;;;;23.92;12.90;;;;;;;22.33;62.22;94797.50;5042380;28;20484;-80
2021/08/01 02:23:52;;;;;;;28.25;13.95;;;;;;;22.40;61.79;94797.06;5058451;28;20035;-79
2021/08/01 02:26:19;;;;;;;37.72;13.98;;;;;;;22.40;61.64;94794.41;5055968;28;20040;-80
2021/08/01 02:28:45;;;;;;;28.70;12.75;;;;;;;22.39;62.16;94795.50;5076318;28;20470;-80
2021/08/01 02:31:10;;;;;;;27.00;12.43;;;;;;;22.37;61.92;94782.56;5041925;28;20028;-80
2021/08/01 02:33:36;;;;;;;28.92;12.65;;;;;;;22.37;61.98;94789.72;5077245;28;20024;-80
2021/08/01 02:36:03;;;;;;;34.13;13.20;;;;;;;22.34;61.85;94795.63;5058049;28;20032;-80
2021/08/01 02:38:28;;;;;;;35.63;13.80;;;;;;;22.30;61.70;94800.00;5041587;28;20074;-80
2021/08/01 02:40:54;;;;;;;26.67;12.68;;;;;;;22.25;61.98;94802.75;5042464;28;20449;-80
2021/08/01 02:43:20;;;;;;;28.48;12.88;;;;;;;22.23;61.87;94800.41;5059294;28;20465;-80
2021/08/01 02:45:45;;;;;;;26.60;13.35;;;;;;;22.20;62.08;94801.03;5042327;28;20028;-80
2021/08/01 02:48:11;;;;;;;30.27;12.80;;;;;;;22.17;62.36;94802.44;5077084;28;20033;-80
2021/08/01 02:50:40;;;;;;;25.27;12.88;;;;;;;22.14;62.85;94808.34;5058949;28;20036;-80
2021/08/01 02:53:10;;;;;;;35.25;12.82;;;;;;;22.10;62.91;94810.00;5056978;28;20048;-80
2021/08/01 02:55:35;;;;;;;28.17;12.60;;;;;;;22.07;62.78;94805.31;5059616;28;20024;-80
2021/08/01 02:58:01;;;;;;;22.88;13.30;;;;;;;22.04;62.93;94805.91;5059192;28;20054;-80
2021/08/01 03:00:27;;;;;;;27.00;13.10;;;;;;;22.02;62.89;94802.78;5042334;28;20029;-79
2021/08/01 03:02:52;;;;;;;30.90;13.32;;;;;;;22.00;62.76;94804.19;5058300;28;20036;-79
2021/08/01 03:05:18;;;;;;;30.58;13.45;;;;;;;21.97;62.94;94810.09;5040930;28;20024;-79
2021/08/01 03:07:44;;;;;;;28.42;12.90;;;;;;;21.94;63.02;94811.44;5075884;28;20032;-80
2021/08/01 03:10:09;;;;;;;24.83;12.50;;;;;;;21.91;63.32;94814.72;5058526;28;20575;-80
2021/08/01 03:12:53;;;;;;;31.77;12.88;;;;;;;21.91;63.14;94813.94;5091506;22;20036;-80
2021/08/01 03:15:18;;;;;;;23.13;13.52;;;;;;;21.89;63.17;94814.22;5076371;28;20032;-79
2021/08/01 03:17:44;;;;;;;22.83;12.52;;;;;;;21.86;62.84;94810.31;5074943;28;20051;-80
2021/08/01 03:20:10;;;;;;;23.80;12.15;;;;;;;21.85;62.92;94813.28;5075819;28;20039;-80
2021/08/01 03:22:35;;;;;;;20.20;12.27;;;;;;;21.76;63.01;94825.66;5075305;28;20064;-80
2021/08/01 03:25:01;;;;;;;28.58;13.13;;;;;;;21.75;62.99;94818.81;5075258;28;20059;-80
2021/08/01 03:27:26;;;;;;;23.52;12.80;;;;;;;21.80;62.89;94838.03;5076178;28;20032;-80
2021/08/01 03:29:55;;;;;;;16.58;11.45;;;;;;;21.84;62.29;94841.63;5041964;28;20086;-79
2021/08/01 03:32:21;;;;;;;23.75;11.65;;;;;;;21.87;62.05;94846.31;5075197;28;20033;-80
2021/08/01 03:34:48;;;;;;;26.15;11.23;;;;;;;21.88;61.96;94844.44;5076460;28;20085;-80
2021/08/01 03:37:13;;;;;;;20.05;10.57;;;;;;;21.92;61.42;94840.09;5075969;28;20025;-80
2021/08/01 03:39:39;;;;;;;22.42;11.95;;;;;;;21.96;61.63;94841.06;5058036;28;20534;-80
2021/08/01 03:42:11;;;;;;;36.53;11.70;;;;;;;22.02;60.92;94831.13;5076437;28;20079;-80
2021/08/01 03:44:36;;;;;;;29.08;10.45;;;;;;;22.10;60.59;94833.06;5076318;28;20362;-80
2021/08/01 03:47:02;;;;;;;22.38;9.25;;;;;;;22.15;59.86;94832.97;5058128;28;20028;-80
2021/08/01 03:49:27;;;;;;;18.00;9.43;;;;;;;22.23;58.95;94839.38;5058260;28;20106;-80
2021/08/01 03:51:53;;;;;;;21.70;10.07;;;;;;;22.30;58.81;94831.78;5076821;28;20039;-80
2021/08/01 03:54:18;;;;;;;17.83;9.85;;;;;;;22.42;58.31;94831.97;5043468;28;20029;-80
2021/08/01 03:56:44;;;;;;;36.60;11.35;;;;;;;22.50;58.40;94822.50;5086462;22;20059;-80
2021/08/01 03:59:10;;;;;;;34.55;14.38;;;;;;;22.56;58.55;94830.00;5098189;28;20035;-80
2021/08/01 04:01:36;;;;;;;44.90;19.10;;;;;;;22.65;58.30;94832.69;5093884;28;20032;-80
2021/08/01 04:04:03;;;;;;;35.70;14.57;;;;;;;22.72;58.08;94831.16;5095354;28;20040;-80
2021/08/01 04:06:28;;;;;;;37.83;15.30;;;;;;;22.84;57.67;94832.47;5095623;28;20107;-80
2021/08/01 04:08:54;;;;;;;40.65;16.90;;;;;;;22.91;57.86;94830.13;5095239;28;20036;-80
2021/08/01 04:11:19;;;;;;;38.20;13.85;;;;;;;23.02;57.65;94834.84;5061053;28;20111;-80
2021/08/01 04:13:44;;;;;;;49.13;13.50;;;;;;;23.47;56.45;94833.81;5096088;28;20031;-80
2021/08/01 04:16:10;;;;;;;49.70;12.55;;;;;;;24.86;52.60;94835.06;5095791;28;20024;-80
2021/08/01 04:18:36;;;;;;;41.13;11.52;;;;;;;26.44;48.35;94835.06;5077547;28;20032;-80
2021/08/01 04:21:06;;;;;;;50.50;10.63;;;;;;;27.93;44.45;94841.47;5076396;28;20028;-80
2021/08/01 04:23:32;;;;;;;26.20;9.57;;;;;;;29.29;40.64;94829.53;5094481;28;20032;-80
2021/08/01 04:25:57;;;;;;;32.22;9.25;;;;;;;30.52;38.47;94826.16;5094271;28;20020;-80
2021/08/01 04:28:23;;;;;;;20.25;8.80;;;;;;;31.64;36.04;94834.38;5095694;28;20037;-78
2021/08/01 04:30:48;;;;;;;21.88;8.32;;;;;;;32.81;33.72;94834.88;5093426;28;20027;-79
2021/08/01 04:33:14;;;;;;;17.88;8.40;;;;;;;33.60;32.15;94838.06;5094575;28;20036;-79
2021/08/01 04:35:39;;;;;;;20.15;9.45;;;;;;;34.61;30.42;94830.66;5093915;28;20028;-79
2021/08/01 04:38:05;;;;;;;28.80;8.05;;;;;;;35.67;29.19;94842.56;5094898;28;20070;-79
2021/08/01 04:40:30;;;;;;;16.55;6.93;;;;;;;36.50;26.98;94832.88;5095363;28;20035;-79
2021/08/01 04:42:56;;;;;;;18.77;7.25;;;;;;;37.07;25.73;94839.81;5094607;28;20390;-78
2021/08/01 04:45:21;;;;;;;15.02;6.82;;;;;;;37.77;25.03;94841.06;5095359;28;20038;-79
2021/08/01 04:47:47;;;;;;;16.58;5.60;;;;;;;38.57;23.49;94842.34;5078137;28;20083;-81
2021/08/01 04:50:13;;;;;;;9.45;5.75;;;;;;;39.36;22.31;94843.81;5095842;28;20388;-81
2021/08/01 04:52:40;;;;;;;11.30;5.22;;;;;;;40.22;21.65;94846.44;5094778;28;20308;-79
2021/08/01 04:55:12;;;;;;;15.95;5.30;;;;;;;40.59;20.79;94852.63;5100557;22;20047;-79
2021/08/01 04:57:37;;;;;;;12.10;5.50;;;;;;;41.42;20.11;94858.41;5076185;28;20028;-79
2021/08/01 05:00:06;;;;;;;21.42;5.40;;;;;;;42.10;19.28;94851.91;5089299;22;20044;-81
2021/08/01 05:02:31;;;;;;;11.30;4.88;;;;;;;42.58;18.75;94852.81;5097571;28;20036;-81
2021/08/01 05:05:00;;;;;;;14.20;5.07;;;;;;;43.23;18.18;94857.78;5091759;28;20128;-82
2021/08/01 05:07:26;;;;;;;9.10;4.57;;;;;;;43.94;17.25;94849.88;5099182;28;20036;-81
2021/08/01 05:09:51;;;;;;;10.98;5.13;;;;;;;44.63;16.78;94850.84;5099306;28;20040;-81
2021/08/01 05:12:17;;;;;;;18.50;5.20;;;;;;;45.26;16.25;94855.75;5099229;28;20032;-81
2021/08/01 05:14:45;;;;;;;14.18;5.10;;;;;;;45.88;15.40;94849.16;5100290;28;20107;-81
2021/08/01 05:17:11;;;;;;;12.82;4.90;;;;;;;46.36;14.76;94850.13;5081000;28;20039;-82
2021/08/01 05:19:40;;;;;;;11.75;4.95;;;;;;;46.81;14.45;94851.97;5048142;28;20411;-81
2021/08/01 05:22:06;;;;;;;22.55;5.63;;;;;;;46.52;14.23;94840.78;5079737;28;20028;-81
2021/08/01 05:24:32;;;;;;;17.25;4.88;;;;;;;46.65;14.32;94844.06;5063584;28;20066;-82
2021/08/01 05:26:57;;;;;;;12.73;5.85;;;;;;;47.14;14.22;94856.69;5098520;28;20028;-81
2021/08/01 05:29:23;;;;;;;10.02;4.93;;;;;;;47.34;13.64;94856.84;5047957;28;20099;-81
2021/08/01 05:31:52;;;;;;;20.35;5.15;;;;;;;47.80;13.83;94862.00;5078276;28;20031;-81
2021/08/01 05:34:17;;;;;;;13.77;5.15;;;;;;;48.36;13.32;94866.53;5094531;28;20060;-81
2021/08/01 05:36:42;;;;;;;14.20;5.00;;;;;;;48.70;12.88;94865.06;5097135;28;20415;-81
2021/08/01 05:39:08;;;;;;;9.75;4.85;;;;;;;49.39;12.26;94864.75;5123394;22;20040;-81
2021/08/01 05:41:33;;;;;;;14.48;4.88;;;;;;;49.95;11.70;94865.34;5079632;28;20024;-81
2021/08/01 05:43:59;;;;;;;11.13;5.03;;;;;;;50.51;12.47;94868.66;5073496;28;20036;-81
2021/08/01 05:46:24;;;;;;;14.00;5.10;;;;;;;51.00;11.83;94873.75;5076799;28;20043;-81
2021/08/01 05:48:50;;;;;;;12.98;4.43;;;;;;;51.48;11.47;94866.72;5066986;28;20024;-81
2021/08/01 05:51:16;;;;;;;12.23;5.00;;;;;;;51.87;10.80;94869.59;5063596;28;20025;-81
2021/08/01 05:53:41;;;;;;;48.33;6.55;;;;;;;52.24;10.76;94868.63;5059862;28;20041;-81
2021/08/01 05:56:08;;;;;;;13.63;4.72;;;;;;;52.60;10.59;94859.31;5064206;28;20024;-78
2021/08/01 05:58:34;;;;;;;13.27;4.55;;;;;;;52.93;10.01;94852.22;5066173;28;20064;-80
2021/08/01 06:01:11;;;;;;;13.93;5.25;;;;;;;53.26;9.46;94857.66;5063846;28;20542;-79
2021/08/01 06:03:37;;;;;;;11.95;5.22;;;;;;;53.56;9.78;94845.94;5047597;28;20036;-80
2021/08/01 06:06:08;;;;;;;14.65;4.63;;;;;;;53.56;9.18;94845.94;5067861;28;20507;-79
2021/08/01 06:08:34;;;;;;;11.52;5.47;;;;;;;53.66;9.59;94841.56;5069280;28;20032;-79
2021/08/01 06:10:59;;;;;;;11.07;4.13;;;;;;;53.75;9.79;94851.66;5066180;28;20055;-80
2021/08/01 06:13:25;;;;;;;12.52;5.05;;;;;;;53.59;9.67;94854.00;5059440;28;20036;-79
2021/08/01 06:15:50;;;;;;;8.40;4.68;;;;;;;53.76;9.22;94853.16;5057912;28;20035;-80
2021/08/01 06:18:16;;;;;;;13.70;5.25;;;;;;;53.92;9.03;94855.09;5063065;28;20131;-79
2021/08/01 06:20:41;;;;;;;14.63;5.50;;;;;;;53.92;9.48;94850.28;5045237;28;20408;-79
2021/08/01 06:23:07;;;;;;;12.57;4.93;;;;;;;53.73;9.18;94843.84;5049099;28;20166;-80
2021/08/01 06:25:38;;;;;;;15.88;6.38;;;;;;;53.35;9.34;94834.38;5065408;28;20423;-80
2021/08/01 06:28:07;;;;;;;18.85;5.35;;;;;;;52.83;10.43;94831.53;5051947;28;20092;-78
2021/08/01 06:30:34;;;;;;;14.43;6.07;;;;;;;52.25;10.15;94834.09;5061362;28;20403;-79
2021/08/01 06:33:00;;;;;;;10.13;5.47;;;;;;;51.41;11.55;94837.44;5052173;28;20040;-80
2021/08/01 06:35:27;;;;;;;18.48;6.07;;;;;;;51.63;11.14;94826.44;5061652;28;20028;-79
2021/08/01 06:37:53;;;;;;;13.93;5.80;;;;;;;51.56;11.24;94826.91;5035109;28;20527;-81
2021/08/01 06:40:19;;;;;;;14.30;5.38;;;;;;;50.80;10.73;94812.22;5066861;28;20037;-80
2021/08/01 06:42:45;;;;;;;21.35;6.28;;;;;;;50.00;11.92;94812.13;5064389;28;20025;-77
2021/08/01 06:45:11;;;;;;;12.18;5.72;;;;;;;49.28;12.27;94810.84;5059068;28;20033;-82
2021/08/01 06:47:37;;;;;;;15.32;6.10;;;;;;;48.60;12.43;94810.44;5051079;28;20534;-79
2021/08/01 06:50:03;;;;;;;11.90;5.88;;;;;;;47.60;13.72;94815.03;5067936;28;20020;-79
2021/08/01 06:52:28;;;;;;;23.40;5.15;;;;;;;46.46;14.77;94809.63;5064157;28;20576;-79
2021/08/01 06:54:54;;;;;;;11.07;5.63;;;;;;;45.91;14.79;94809.78;5140295;22;20045;-79
2021/08/01 06:57:19;;;;;;;19.48;5.53;;;;;;;45.28;15.78;94803.88;5250437;22;20041;-79
2021/08/01 06:59:45;;;;;;;17.88;6.55;;;;;;;44.62;16.14;94802.69;5076550;28;20040;-80
2021/08/01 07:02:10;;;;;;;14.63;6.63;;;;;;;44.05;16.83;94808.34;5084565;28;20032;-80
2021/08/01 07:04:36;;;;;;;16.52;6.78;;;;;;;43.43;17.64;94811.72;5057768;28;20491;-79
2021/08/01 07:07:01;;;;;;;23.23;6.93;;;;;;;42.59;18.40;94810.59;5028985;28;20412;-80
2021/08/01 07:09:27;;;;;;;21.50;6.95;;;;;;;41.94;19.15;94810.97;5065275;28;20166;-80
2021/08/01 07:11:54;;;;;;;21.08;7.03;;;;;;;41.49;19.78;94814.53;5039327;28;20488;-78
2021/08/01 07:14:20;;;;;;;18.38;7.00;;;;;;;40.98;20.05;94811.56;5037423;28;20028;-79
2021/08/01 07:16:46;;;;;;;25.20;7.22;;;;;;;40.46;20.71;94815.13;5056362;28;20033;-81
2021/08/01 07:19:11;;;;;;;18.00;7.25;;;;;;;40.04;21.13;94813.34;5022420;28;20036;-78
2021/08/01 07:21:37;;;;;;;18.48;7.03;;;;;;;39.88;21.59;94812.09;5038663;28;20036;-81
2021/08/01 07:24:02;;;;;;;16.80;7.55;;;;;;;39.70;21.88;94819.84;5054534;28;20167;-79
2021/08/01 07:26:28;;;;;;;13.68;7.43;;;;;;;39.30;22.44;94827.97;5056291;28;20050;-86
2021/08/01 07:28:53;;;;;;;16.75;7.47;;;;;;;39.00;23.26;94822.66;5005566;28;20128;-82
2021/08/01 07:31:19;;;;;;;19.60;8.05;;;;;;;38.87;23.03;94821.69;5056788;28;20408;-81
2021/08/01 07:33:44;;;;;;;21.80;8.45;;;;;;;38.53;22.88;94825.31;5036904;28;20572;-81
2021/08/01 07:36:10;;;;;;;24.13;7.95;;;;;;;38.21;23.58;94833.94;5055782;28;20033;-81
2021/08/01 07:38:35;;;;;;;19.55;7.45;;;;;;;38.08;24.01;94833.72;5057108;28;20033;-81
2021/08/01 07:41:00;;;;;;;24.75;7.90;;;;;;;38.07;24.06;94837.56;5056135;28;20071;-81
2021/08/01 07:43:26;;;;;;;21.20;7.32;;;;;;;37.94;23.98;94823.03;5052179;28;20054;-81
2021/08/01 07:45:52;;;;;;;23.60;7.57;;;;;;;37.99;24.61;94825.28;5046815;28;20433;-79
2021/08/01 07:48:18;;;;;;;20.92;7.53;;;;;;;38.04;24.97;94827.53;5050975;28;20084;-80
2021/08/01 07:50:44;;;;;;;20.55;7.43;;;;;;;38.13;24.87;94833.25;5032911;28;20436;-80
2021/08/01 07:53:10;;;;;;;21.70;7.95;;;;;;;38.05;24.18;94831.00;5064997;28;20036;-79
2021/08/01 07:55:37;;;;;;;20.27;8.25;;;;;;;37.94;23.80;94823.03;5064534;28;20536;-80
2021/08/01 07:58:05;;;;;;;22.95;8.18;;;;;;;37.82;23.68;94820.84;5055304;28;20036;-80
2021/08/01 08:00:30;;;;;;;18.65;7.85;;;;;;;37.70;24.42;94813.97;5076222;28;20028;-80
2021/08/01 08:02:56;;;;;;;23.90;8.23;;;;;;;37.36;24.84;94816.69;5057610;28;20032;-80
2021/08/01 08:05:21;;;;;;;23.05;8.27;;;;;;;37.13;25.41;94813.81;5077099;28;20086;-81
2021/08/01 08:07:47;;;;;;;20.25;8.63;;;;;;;37.04;25.86;94802.66;5057633;28;20032;-80
2021/08/01 08:10:12;;;;;;;22.80;8.95;;;;;;;36.83;25.38;94807.13;5076449;28;20028;-80
2021/08/01 08:12:38;;;;;;;20.38;8.57;;;;;;;36.79;25.52;94798.22;5057563;28;20036;-80
2021/08/01 08:15:06;;;;;;;25.75;8.05;;;;;;;36.71;26.48;94794.03;5075950;28;20040;-80
2021/08/01 08:17:33;;;;;;;15.95;7.60;;;;;;;36.71;25.90;94793.25;5075932;28;21438;-80
2021/08/01 08:20:03;;;;;;;24.70;8.80;;;;;;;36.52;25.70;94791.84;5046241;23;20068;-80
2021/08/01 08:22:28;;;;;;;14.40;8.48;;;;;;;36.43;25.29;94783.41;5055422;28;20060;-80
2021/08/01 08:24:54;;;;;;;19.98;8.15;;;;;;;36.43;26.16;94786.09;5056330;28;20025;-81
2021/08/01 08:27:19;;;;;;;19.23;8.57;;;;;;;36.43;26.59;94783.41;5056213;28;20037;-80
2021/08/01 08:29:44;;;;;;;17.13;8.20;;;;;;;36.43;26.74;94775.28;5056005;28;20029;-80
2021/08/01 08:32:10;;;;;;;23.08;8.90;;;;;;;36.26;26.46;94785.03;5055743;28;20595;-80
2021/08/01 08:34:36;;;;;;;21.13;8.48;;;;;;;35.97;27.37;94789.88;5036746;28;20106;-80
2021/08/01 08:37:01;;;;;;;25.23;8.85;;;;;;;35.86;26.91;94789.16;5059407;28;20052;-80
2021/08/01 08:39:28;;;;;;;20.40;8.20;;;;;;;35.73;27.06;94781.44;5058059;28;20906;-80
2021/08/01 08:41:59;;;;;;;20.02;8.02;;;;;;;35.68;27.03;94776.47;5059154;28;20060;-81
2021/08/01 08:44:25;;;;;;;22.95;9.27;;;;;;;35.63;27.03;94763.31;5041723;28;20134;-80
2021/08/01 08:46:55;;;;;;;22.05;8.70;;;;;;;35.64;27.17;94773.00;5022578;28;20021;-78
2021/08/01 08:49:23;;;;;;;25.25;8.45;;;;;;;35.43;27.36;94768.44;5059136;28;20040;-80
2021/08/01 08:51:53;;;;;;;15.27;8.05;;;;;;;35.44;27.18;94763.78;5059041;28;20083;-81
2021/08/01 08:54:31;;;;;;;22.95;8.25;;;;;;;35.18;27.71;94757.69;5054119;28;20029;-80
2021/08/01 08:56:57;;;;;;;14.20;7.85;;;;;;;34.96;27.75;94764.28;5058464;28;20036;-80
2021/08/01 08:59:22;;;;;;;19.45;8.20;;;;;;;34.42;27.90;94768.94;5024967;28;20040;-82
2021/08/01 09:01:48;;;;;;;17.75;7.13;;;;;;;34.33;28.01;94757.72;5082816;22;20443;-80
2021/08/01 09:04:14;;;;;;;22.13;8.77;;;;;;;34.25;28.81;94762.34;5058689;28;20116;-80
2021/08/01 09:06:39;;;;;;;18.42;8.43;;;;;;;33.80;29.22;94753.00;5058429;28;20029;-81
2021/08/01 09:09:05;;;;;;;20.33;8.07;;;;;;;33.66;29.56;94763.72;5023885;28;20128;-79
2021/08/01 09:11:30;;;;;;;19.67;8.32;;;;;;;33.75;29.96;94750.66;5041237;28;20049;-79
2021/08/01 09:13:57;;;;;;;25.30;8.73;;;;;;;33.83;28.85;94760.31;5057839;28;20037;-80
2021/08/01 09:16:39;;;;;;;21.17;8.05;;;;;;;33.87;28.60;94755.75;5087737;22;20040;-80
2021/08/01 09:19:22;;;;;;;21.50;7.57;;;;;;;33.97;28.95;94749.59;5078207;28;20025;-80
2021/08/01 09:21:47;;;;;;;25.13;8.35;;;;;;;34.03;29.12;94741.13;5077971;28;20032;-80
2021/08/01 09:24:13;;;;;;;29.20;7.60;;;;;;;34.05;28.51;94742.28;5077681;28;20040;-80
2021/08/01 09:26:46;;;;;;;18.30;7.68;;;;;;;34.09;29.38;94748.44;5044964;28;20040;-80
2021/08/01 09:29:11;;;;;;;16.60;8.07;;;;;;;34.00;28.56;94746.13;5163035;22;20011;-79
2021/08/01 09:31:37;;;;;;;33.55;8.93;;;;;;;33.81;28.41;94743.75;5033945;28;20083;-80
2021/08/01 09:34:22;;;;;;;26.15;7.90;;;;;;;33.73;28.83;94742.19;5038756;28;20135;-79
2021/08/01 09:37:04;;;;;;;17.55;8.27;;;;;;;33.58;29.31;94737.91;5036568;28;20055;-80
2021/08/01 09:39:29;;;;;;;;;;;;;;;33.64;29.74;94730.97;5038131;28;20030;-79
2021/08/01 09:42:02;;;;;;;18.40;8.30;;;;;;;33.59;29.45;94717.88;5036680;28;19917;-80
2021/08/01 09:44:27;;;;;;;19.48;8.40;;;;;;;33.66;29.53;94721.34;5038655;28;20029;-79
2021/08/01 09:46:55;;;;;;;16.00;7.55;;;;;;;33.68;29.70;94707.50;5054410;22;20052;-80
2021/08/01 09:49:22;;;;;;;19.40;8.35;;;;;;;33.63;29.37;94710.56;5058081;28;20029;-79
2021/08/01 09:51:49;;;;;;;17.70;7.68;;;;;;;33.71;29.35;94707.53;5069419;28;20025;-80
2021/08/01 09:54:16;;;;;;;22.45;8.60;;;;;;;33.62;29.79;94717.13;5043973;28;20404;-80
2021/08/01 09:57:00;;;;;;;25.92;9.32;;;;;;;33.63;29.47;94705.16;5060398;28;20025;-80
2021/08/01 09:59:27;;;;;;;28.25;8.70;;;;;;;33.68;29.86;94692.09;5077180;28;20035;-80
2021/08/01 10:01:57;;;;;;;12.40;7.53;;;;;;;33.66;30.06;94693.63;5076154;28;20035;-80
2021/08/01 10:04:24;;;;;;;22.58;8.23;;;;;;;33.56;29.89;94683.59;5078650;28;20033;-80
2021/08/01 10:07:16;;;;;;;19.40;7.93;;;;;;;33.36;30.91;94694.72;5077703;28;20051;-79
2021/08/01 10:09:45;;;;;;;18.67;7.38;;;;;;;33.08;30.13;94708.03;5045646;28;20123;-79
2021/08/01 10:12:11;;;;;;;22.33;8.25;;;;;;;32.93;30.72;94690.25;5077020;28;20056;-79
2021/08/01 10:14:37;;;;;;;19.55;8.43;;;;;;;32.99;30.65;94681.44;5078644;28;20080;-79
2021/08/01 10:17:03;;;;;;;18.45;7.85;;;;;;;33.13;30.78;94678.03;5060783;28;20024;-80
2021/08/01 10:19:29;;;;;;;21.92;8.63;;;;;;;33.24;29.95;94668.06;5076992;28;20120;-80
2021/08/01 10:21:57;;;;;;;19.70;7.63;;;;;;;33.34;29.82;94671.97;5080928;28;20028;-80
2021/08/01 10:24:25;;;;;;;19.30;7.45;;;;;;;33.43;30.28;94675.84;5079025;28;20182;-80
2021/08/01 10:26:52;;;;;;;15.93;7.53;;;;;;;33.22;29.96;94675.75;5075979;28;20033;-80
2021/08/01 10:31:54;;;;;;;17.52;7.57;;;;;;;33.15;30.30;94659.56;5103900;22;20107;-80
2021/08/01 10:34:39;;;;;;;27.38;8.32;;;;;;;33.20;30.33;94651.13;5054930;22;20127;-80
2021/08/01 10:37:06;;;;;;;16.73;7.90;;;;;;;33.24;30.29;94643.03;5069938;28;20066;-82
2021/08/01 10:39:32;;;;;;;22.23;7.68;;;;;;;33.22;30.31;94638.03;5078047;28;20051;-79
2021/08/01 10:42:01;;;;;;;22.42;8.25;;;;;;;33.23;30.32;94642.28;5060620;28;20690;-80
2021/08/01 10:44:26;;;;;;;21.15;7.30;;;;;;;33.29;30.28;94640.75;5076661;28;20020;-80
2021/08/01 10:46:55;;;;;;;20.73;7.75;;;;;;;33.40;30.00;94643.50;5043459;28;20040;-80
2021/08/01 10:49:20;;;;;;;24.15;8.18;;;;;;;33.40;29.46;94636.19;5043806;28;20116;-79
2021/08/01 10:51:46;;;;;;;19.40;8.25;;;;;;;33.49;29.02;94635.81;5042703;28;20048;-80
2021/08/01 10:54:20;;;;;;;22.35;7.85;;;;;;;33.52;29.14;94620.78;5085132;22;20042;-79
2021/08/01 10:56:46;;;;;;;23.42;7.82;;;;;;;33.55;28.37;94612.72;5056877;28;20047;-80
2021/08/01 10:59:49;;;;;;;14.02;7.57;;;;;;;33.54;29.33;94611.19;5057481;28;20021;-79
2021/08/01 11:02:18;;;;;;;20.10;8.20;;;;;;;33.53;30.09;94608.88;5056934;28;20044;-80
2021/08/01 11:04:45;;;;;;;16.42;7.65;;;;;;;33.62;29.76;94607.31;5007467;28;20512;-79
2021/08/01 11:07:11;;;;;;;20.08;8.25;;;;;;;33.69;29.83;94601.19;5006769;28;20032;-80
2021/08/01 11:09:37;;;;;;;19.55;8.48;;;;;;;33.68;28.99;94596.91;5039777;28;20167;-80
2021/08/01 11:12:17;;;;;;;26.60;8.98;;;;;;;33.73;29.39;94596.56;5039157;28;20041;-80
2021/08/01 11:14:50;;;;;;;25.77;8.02;;;;;;;33.76;28.77;94601.19;5056665;28;20029;-79
2021/08/01 11:17:17;;;;;;;14.30;8.27;;;;;;;33.74;29.42;94598.09;5039759;28;20051;-80
2021/08/01 11:19:42;;;;;;;19.65;9.02;;;;;;;33.78;28.86;94601.56;5039291;28;20033;-80
2021/08/01 11:22:43;;;;;;;15.95;7.07;;;;;;;33.66;28.15;94586.53;5022193;28;20029;-80
2021/08/01 11:25:27;;;;;;;13.63;8.20;;;;;;;33.56;28.61;94586.53;4956511;29;20035;-80
2021/08/01 11:28:08;;;;;;;21.42;8.50;;;;;;;33.61;28.92;94580.75;5030507;28;20113;-80